Time;durP1;ratioP1;P1;durP2;ratioP2;P2;SDS_P1;SDS_P2;PMS_P1;PMS_P2;Temp;Humidity;BMP_temperature;BMP_pressure;BME280_temperature;BME280_humidity;BME280_pressure;Samples;Min_cycle;Max_cycle;Signal;HPM_P1;HPM_P2
2022/12/11 00:01:23;;;;;;;470.90;63.95;;;4.80;99.90;;;;;;5092057;28;20402;-63
2022/12/11 00:03:49;;;;;;;239.95;55.92;;;6.10;99.90;;;;;;5091280;28;20514;-63
2022/12/11 00:06:18;;;;;;;252.02;56.88;;;4.90;99.90;;;;;;5083317;28;20075;-63
2022/12/11 00:08:44;;;;;;;192.00;51.97;;;4.30;99.90;;;;;;5091806;28;20028;-63
2022/12/11 00:11:14;;;;;;;203.90;51.50;;;4.40;99.90;;;;;;5074653;28;20094;-63
2022/12/11 00:13:40;;;;;;;210.45;54.92;;;5.10;99.90;;;;;;5085527;28;20024;-63
2022/12/11 00:16:06;;;;;;;187.32;50.72;;;6.70;99.90;;;;;;5072893;28;20044;-63
2022/12/11 00:18:33;;;;;;;195.93;53.70;;;5.50;99.90;;;;;;5074128;28;20040;-63
2022/12/11 00:21:03;;;;;;;222.52;56.45;;;4.60;99.90;;;;;;5074394;28;20051;-63
2022/12/11 00:23:29;;;;;;;235.90;59.45;;;5.00;99.90;;;;;;5075249;28;20028;-63
2022/12/11 00:25:54;;;;;;;216.13;56.42;;;4.80;99.90;;;;;;5085373;28;20387;-63
2022/12/11 00:28:20;;;;;;;210.25;55.30;;;6.10;99.90;;;;;;5090439;28;20098;-63
2022/12/11 00:30:46;;;;;;;149.70;46.83;;;5.10;99.90;;;;;;5093315;28;20036;-63
2022/12/11 00:33:12;;;;;;;168.27;50.78;;;4.70;99.90;;;;;;5087161;28;20123;-63
2022/12/11 00:35:43;;;;;;;159.10;51.10;;;5.50;99.90;;;;;;5077239;28;20435;-63
2022/12/11 00:38:18;;;;;;;151.65;47.88;;;6.10;99.90;;;;;;5073716;28;20028;-63
2022/12/11 00:40:44;;;;;;;163.85;51.40;;;6.50;99.90;;;;;;5081102;28;20040;-63
2022/12/11 00:43:10;;;;;;;135.45;45.90;;;6.40;99.90;;;;;;5074831;28;20567;-63
2022/12/11 00:45:40;;;;;;;164.57;50.15;;;6.70;99.90;;;;;;5074759;28;20068;-63
2022/12/11 00:48:09;;;;;;;157.20;50.53;;;5.00;99.90;;;;;;5076279;28;20038;-64
2022/12/11 00:50:35;;;;;;;164.32;51.08;;;6.30;99.90;;;;;;5072363;28;20071;-63
2022/12/11 00:53:01;;;;;;;162.68;49.92;;;4.80;99.90;;;;;;5090187;28;20063;-63
2022/12/11 00:55:29;;;;;;;137.20;44.22;;;6.70;99.90;;;;;;5092000;28;20070;-63
2022/12/11 00:57:57;;;;;;;185.07;54.92;;;4.80;99.90;;;;;;5087792;28;20161;-63
2022/12/11 01:00:22;;;;;;;171.60;51.17;;;5.30;99.90;;;;;;5085515;28;20035;-63
2022/12/11 01:02:49;;;;;;;155.40;48.88;;;5.00;99.90;;;;;;5086523;28;20420;-63
2022/12/11 01:05:15;;;;;;;214.95;55.85;;;6.20;99.90;;;;;;5070752;28;20048;-63
2022/12/11 01:07:41;;;;;;;207.15;55.63;;;5.00;99.90;;;;;;5076380;28;20374;-63
2022/12/11 01:10:25;;;;;;;185.73;53.67;;;5.70;99.90;;;;;;5092507;28;20031;-63
2022/12/11 01:13:03;;;;;;;190.07;53.55;;;6.90;99.90;;;;;;5091174;28;20074;-63
2022/12/11 01:15:32;;;;;;;201.48;53.65;;;5.60;99.90;;;;;;5088469;28;20101;-63
2022/12/11 01:17:57;;;;;;;184.85;51.75;;;6.80;99.90;;;;;;5088409;28;20630;-63
2022/12/11 01:20:24;;;;;;;171.48;50.75;;;6.00;99.90;;;;;;5090755;28;20044;-63
2022/12/11 01:22:55;;;;;;;156.25;49.22;;;6.30;99.90;;;;;;5084432;28;20085;-63
2022/12/11 01:25:20;;;;;;;148.38;48.72;;;5.10;99.90;;;;;;5073034;28;20570;-63
2022/12/11 01:27:48;;;;;;;152.88;48.10;;;6.60;99.90;;;;;;5088009;28;20170;-63
2022/12/11 01:30:14;;;;;;;148.75;46.15;;;5.90;99.90;;;;;;5082417;28;20032;-63
2022/12/11 01:32:39;;;;;;;124.43;43.42;;;5.20;99.90;;;;;;5089160;28;20035;-63
2022/12/11 01:35:07;;;;;;;121.13;42.92;;;5.70;99.90;;;;;;5072350;28;20363;-63
2022/12/11 01:37:33;;;;;;;151.25;48.17;;;5.60;99.90;;;;;;5081250;28;20032;-63
2022/12/11 01:40:03;;;;;;;136.05;44.78;;;5.10;99.90;;;;;;5076211;28;20034;-63
2022/12/11 01:42:29;;;;;;;128.02;44.28;;;7.10;99.90;;;;;;5088955;28;20032;-63
2022/12/11 01:45:33;;;;;;;122.82;43.03;;;7.10;99.90;;;;;;5084858;28;20086;-63
2022/12/11 01:48:06;;;;;;;120.80;44.25;;;7.10;99.90;;;;;;5069242;28;20066;-63
2022/12/11 01:50:37;;;;;;;119.40;42.95;;;5.10;99.90;;;;;;5071598;28;20053;-63
2022/12/11 01:53:06;;;;;;;127.07;42.95;;;7.00;99.90;;;;;;5083359;28;20028;-63
2022/12/11 01:55:34;;;;;;;116.15;41.63;;;6.80;99.90;;;;;;5091357;28;20415;-63
2022/12/11 01:58:01;;;;;;;128.75;44.40;;;6.20;99.90;;;;;;5074577;28;21348;-63
2022/12/11 02:00:26;;;;;;;121.05;45.15;;;5.30;99.90;;;;;;5088307;28;20493;-63
2022/12/11 02:02:52;;;;;;;107.50;41.75;;;5.20;99.90;;;;;;5089117;28;20093;-63
2022/12/11 02:05:17;;;;;;;120.10;44.05;;;5.20;99.90;;;;;;5071378;28;20041;-63
2022/12/11 02:07:48;;;;;;;118.38;43.53;;;5.90;99.90;;;;;;5092078;28;20035;-63
2022/12/11 02:10:14;;;;;;;114.60;44.50;;;5.20;99.90;;;;;;5093708;28;20044;-63
2022/12/11 02:12:56;;;;;;;133.90;47.78;;;5.20;99.90;;;;;;5091422;28;20035;-63
2022/12/11 02:15:32;;;;;;;152.98;50.53;;;6.90;99.90;;;;;;5093298;28;20044;-63
2022/12/11 02:18:06;;;;;;;137.07;48.67;;;7.10;99.90;;;;;;5079411;28;20088;-63
2022/12/11 02:20:35;;;;;;;154.80;50.00;;;5.70;99.90;;;;;;5076513;28;20502;-63
2022/12/11 02:23:59;;;;;;;117.07;42.78;;;6.30;99.90;;;;;;5085598;28;20131;-63
2022/12/11 02:26:35;;;;;;;132.57;47.42;;;6.20;99.90;;;;;;5070505;28;20134;-63
2022/12/11 02:29:06;;;;;;;140.23;47.88;;;5.30;99.90;;;;;;5053202;28;20217;-63
2022/12/11 02:31:35;;;;;;;132.63;49.13;;;5.20;99.90;;;;;;5075880;28;20540;-63
2022/12/11 02:34:08;;;;;;;128.23;47.72;;;5.90;99.90;;;;;;5076973;28;20028;-63
2022/12/11 02:36:39;;;;;;;145.32;48.53;;;5.80;99.90;;;;;;5092145;28;20401;-63
2022/12/11 02:39:07;;;;;;;136.02;49.22;;;5.90;99.90;;;;;;5088199;28;20119;-63
2022/12/11 02:41:33;;;;;;;145.63;50.60;;;6.10;99.90;;;;;;5095325;28;20070;-63
2022/12/11 02:44:02;;;;;;;149.57;50.40;;;7.10;99.90;;;;;;5080477;28;20048;-63
2022/12/11 02:46:30;;;;;;;151.88;49.60;;;5.60;99.90;;;;;;5079231;28;20039;-63
2022/12/11 02:48:56;;;;;;;145.40;50.30;;;7.10;99.90;;;;;;5086343;28;20086;-63
2022/12/11 02:51:29;;;;;;;142.10;50.38;;;5.50;99.90;;;;;;5075019;28;20079;-63
2022/12/11 02:53:57;;;;;;;142.23;50.05;;;7.10;99.90;;;;;;5073511;28;20086;-63
2022/12/11 02:56:29;;;;;;;148.65;47.90;;;5.50;99.90;;;;;;5080204;28;20104;-63
2022/12/11 02:59:04;;;;;;;154.73;50.63;;;5.50;99.90;;;;;;5093313;28;20040;-63
2022/12/11 03:01:30;;;;;;;149.23;50.23;;;7.20;99.90;;;;;;5091803;28;20040;-63
2022/12/11 03:03:57;;;;;;;133.38;46.45;;;7.10;99.90;;;;;;5090506;28;20289;-63
2022/12/11 03:06:30;;;;;;;136.60;47.83;;;6.90;99.90;;;;;;5077016;28;20047;-63
2022/12/11 03:08:56;;;;;;;137.88;48.40;;;5.60;99.90;;;;;;5094492;28;20040;-63
2022/12/11 03:11:21;;;;;;;135.98;47.95;;;5.50;99.90;;;;;;5093427;28;20028;-63
2022/12/11 03:13:47;;;;;;;139.75;48.63;;;5.50;99.90;;;;;;5083620;28;20038;-63
2022/12/11 03:16:27;;;;;;;129.75;47.38;;;7.00;99.90;;;;;;5092143;28;20409;-63
2022/12/11 03:19:01;;;;;;;129.25;48.20;;;7.20;99.90;;;;;;5090089;28;20119;-63
2022/12/11 03:21:35;;;;;;;122.47;45.08;;;7.20;99.90;;;;;;5087564;28;20045;-63
2022/12/11 03:24:27;;;;;;;125.80;46.58;;;7.30;99.90;;;;;;5090950;28;20063;-63
2022/12/11 03:27:01;;;;;;;115.57;44.28;;;7.30;99.90;;;;;;5091843;28;20111;-63
2022/12/11 03:29:47;;;;;;;114.60;43.92;;;6.10;99.90;;;;;;5092695;28;20507;-63
2022/12/11 03:32:18;;;;;;;108.40;44.33;;;6.30;99.90;;;;;;5092904;28;20032;-63
2022/12/11 03:35:08;;;;;;;112.00;45.05;;;7.30;99.90;;;;;;5088426;28;20041;-63
2022/12/11 03:37:37;;;;;;;114.07;42.00;;;7.20;99.90;;;;;;5088881;28;20112;-63
2022/12/11 03:40:10;;;;;;;98.32;41.35;;;7.20;99.90;;;;;;5085142;28;20382;-63
2022/12/11 03:42:37;;;;;;;104.63;41.67;;;7.10;99.90;;;;;;5082413;28;20119;-63
2022/12/11 03:45:05;;;;;;;107.88;42.03;;;6.80;99.90;;;;;;5084727;28;20553;-63
2022/12/11 03:47:32;;;;;;;97.25;40.35;;;5.80;99.90;;;;;;5086384;28;20113;-63
2022/12/11 03:49:58;;;;;;;88.70;39.22;;;7.20;99.90;;;;;;5081200;28;20048;-63
2022/12/11 03:52:26;;;;;;;96.72;40.63;;;6.50;99.90;;;;;;5092861;28;20036;-63
2022/12/11 03:54:56;;;;;;;93.72;38.95;;;7.30;99.90;;;;;;5091952;28;20071;-63
2022/12/11 03:57:27;;;;;;;98.80;40.30;;;6.30;99.90;;;;;;5090329;28;20626;-63
2022/12/11 03:59:53;;;;;;;86.20;39.10;;;6.30;99.90;;;;;;5092833;28;20036;-63
2022/12/11 04:02:18;;;;;;;96.78;38.60;;;6.00;99.90;;;;;;5091314;28;20089;-63
2022/12/11 04:04:44;;;;;;;91.65;41.08;;;5.90;99.90;;;;;;5088936;28;20474;-63
2022/12/11 04:07:09;;;;;;;82.57;38.55;;;6.60;99.90;;;;;;5088189;28;20047;-63
2022/12/11 04:09:35;;;;;;;81.03;39.03;;;5.80;99.90;;;;;;5092911;28;20028;-63
2022/12/11 04:12:01;;;;;;;82.05;39.13;;;5.90;99.90;;;;;;5085934;28;20032;-63
2022/12/11 04:17:11;;;;;;;73.35;35.65;;;7.30;99.90;;;;;;5077166;28;20506;-63
2022/12/11 04:25:06;;;;;;;64.82;35.50;;;7.40;99.90;;;;;;5073948;28;20055;-63
2022/12/11 04:27:47;;;;;;;68.00;35.55;;;6.30;99.90;;;;;;5084377;28;20336;-63
2022/12/11 04:30:19;;;;;;;68.70;35.25;;;6.40;99.90;;;;;;5091371;28;20439;-63
2022/12/11 04:32:45;;;;;;;69.07;36.25;;;5.90;99.90;;;;;;5090291;28;20048;-63
2022/12/11 04:35:11;;;;;;;65.63;35.95;;;6.00;99.90;;;;;;5083953;28;20028;-63
2022/12/11 04:37:38;;;;;;;59.53;34.97;;;6.90;99.90;;;;;;5080605;28;20457;-63
2022/12/11 04:40:05;;;;;;;61.28;34.05;;;6.50;99.90;;;;;;5088984;28;20040;-63
2022/12/11 04:42:31;;;;;;;64.60;33.88;;;7.20;99.90;;;;;;5080506;28;20195;-63
2022/12/11 04:44:56;;;;;;;61.47;33.38;;;6.20;99.90;;;;;;5073840;28;20040;-63
2022/12/11 04:47:22;;;;;;;55.35;32.28;;;6.80;99.90;;;;;;5083514;28;20036;-63
2022/12/11 04:49:48;;;;;;;59.25;34.85;;;6.80;99.90;;;;;;5091395;28;20458;-63
2022/12/11 04:52:13;;;;;;;61.67;34.97;;;6.60;99.90;;;;;;5089264;28;20040;-63
2022/12/11 04:54:39;;;;;;;57.45;33.40;;;6.90;99.90;;;;;;5079010;28;20036;-63
2022/12/11 04:57:05;;;;;;;57.92;32.63;;;6.00;99.90;;;;;;5078285;28;20033;-63
2022/12/11 04:59:33;;;;;;;59.88;33.92;;;6.60;99.90;;;;;;5092665;28;20036;-63
2022/12/11 05:01:59;;;;;;;56.20;33.67;;;7.10;99.90;;;;;;5091071;28;20054;-63
2022/12/11 05:04:24;;;;;;;61.45;35.58;;;7.10;99.90;;;;;;5077275;28;20165;-63
2022/12/11 05:06:50;;;;;;;59.85;34.13;;;7.10;99.90;;;;;;5082683;28;20048;-63
2022/12/11 05:09:16;;;;;;;58.47;34.35;;;6.20;99.90;;;;;;5080056;28;20044;-63
2022/12/11 05:11:42;;;;;;;58.53;34.75;;;7.10;99.90;;;;;;5085573;28;20036;-64
2022/12/11 05:14:07;;;;;;;55.53;32.58;;;6.20;99.90;;;;;;5076764;28;20498;-63
2022/12/11 05:16:33;;;;;;;54.13;32.90;;;6.70;99.90;;;;;;5085958;28;20056;-63
2022/12/11 05:18:58;;;;;;;56.03;33.75;;;6.20;99.90;;;;;;5073062;28;20131;-63
2022/12/11 05:21:24;;;;;;;62.30;35.75;;;6.50;99.90;;;;;;5082946;28;20393;-63
2022/12/11 05:23:50;;;;;;;60.10;35.20;;;6.20;99.90;;;;;;5089245;28;20464;-63
2022/12/11 05:26:19;;;;;;;59.92;33.53;;;6.20;99.90;;;;;;5090641;28;20379;-64
2022/12/11 05:28:45;;;;;;;61.08;36.38;;;6.20;99.90;;;;;;5087732;28;20048;-63
2022/12/11 05:31:16;;;;;;;59.42;35.95;;;7.10;99.90;;;;;;5074070;28;20024;-63
2022/12/11 05:33:43;;;;;;;63.38;37.10;;;6.80;99.90;;;;;;5086512;28;20096;-63
2022/12/11 05:36:33;;;;;;;62.97;36.38;;;6.40;99.90;;;;;;5089267;28;20031;-63
2022/12/11 05:39:00;;;;;;;64.78;36.92;;;6.30;99.90;;;;;;5086831;28;20076;-63
2022/12/11 05:41:28;;;;;;;59.05;35.13;;;7.20;99.90;;;;;;5077090;28;20044;-63
2022/12/11 05:43:54;;;;;;;61.30;35.72;;;7.20;99.90;;;;;;5090466;28;20032;-63
2022/12/11 05:46:22;;;;;;;63.15;36.22;;;7.10;99.90;;;;;;5088769;28;20036;-63
2022/12/11 05:48:51;;;;;;;61.22;34.97;;;6.40;99.90;;;;;;5089765;28;20516;-63
2022/12/11 05:51:18;;;;;;;60.78;34.80;;;6.70;99.90;;;;;;5088880;28;20115;-63
2022/12/11 05:53:45;;;;;;;64.15;38.08;;;6.60;99.90;;;;;;5089521;28;20024;-63
2022/12/11 05:56:13;;;;;;;60.10;35.88;;;6.40;99.90;;;;;;5090361;28;20039;-63
2022/12/11 05:58:41;;;;;;;58.55;34.10;;;6.60;99.90;;;;;;5089268;28;20028;-63
2022/12/11 06:01:12;;;;;;;60.72;36.42;;;6.10;99.90;;;;;;5090515;28;20377;-63
2022/12/11 06:03:38;;;;;;;62.03;36.88;;;7.10;99.90;;;;;;5083883;28;20036;-63
2022/12/11 06:06:05;;;;;;;63.25;38.50;;;6.10;99.90;;;;;;5079820;28;20029;-63
2022/12/11 06:08:31;;;;;;;60.80;36.45;;;6.80;99.90;;;;;;5071273;28;20486;-64
2022/12/11 06:10:57;;;;;;;60.28;36.83;;;7.20;99.90;;;;;;5083470;28;20104;-63
2022/12/11 06:13:23;;;;;;;63.90;37.42;;;7.20;99.90;;;;;;5077738;28;20174;-63
2022/12/11 06:15:49;;;;;;;65.40;37.85;;;7.20;99.90;;;;;;5071689;28;20040;-63
2022/12/11 06:18:14;;;;;;;69.05;38.15;;;6.70;99.90;;;;;;5074592;28;20051;-64
2022/12/11 06:20:40;;;;;;;64.93;37.22;;;6.30;99.90;;;;;;5075753;28;20470;-63
2022/12/11 06:23:06;;;;;;;61.28;38.30;;;7.00;99.90;;;;;;5089296;28;20036;-63
2022/12/11 06:25:31;;;;;;;63.45;39.22;;;6.10;99.90;;;;;;5091531;28;20467;-63
2022/12/11 06:27:57;;;;;;;63.83;39.25;;;6.40;99.90;;;;;;5089542;28;20398;-63
2022/12/11 06:30:22;;;;;;;59.65;37.33;;;6.50;99.90;;;;;;5090524;28;20043;-63
2022/12/11 06:32:48;;;;;;;58.38;37.78;;;7.20;99.90;;;;;;5081481;28;20494;-63
2022/12/11 06:35:13;;;;;;;60.10;37.45;;;6.30;99.90;;;;;;5085907;28;20032;-63
2022/12/11 06:37:39;;;;;;;55.22;36.28;;;6.20;99.90;;;;;;5077693;28;20040;-63
2022/12/11 06:40:07;;;;;;;54.13;35.00;;;7.20;99.90;;;;;;5070780;28;20470;-63
2022/12/11 06:42:33;;;;;;;56.60;36.53;;;7.10;99.90;;;;;;5072500;28;20033;-64
2022/12/11 06:44:59;;;;;;;50.53;33.72;;;6.50;99.90;;;;;;5073728;28;20048;-63
2022/12/11 06:47:26;;;;;;;53.17;35.40;;;6.20;99.90;;;;;;5080380;28;20033;-63
2022/12/11 06:49:51;;;;;;;49.10;33.05;;;7.20;99.90;;;;;;5083244;28;20043;-63
2022/12/11 06:52:17;;;;;;;53.80;34.25;;;6.40;99.90;;;;;;5091636;28;20040;-63
2022/12/11 06:54:42;;;;;;;48.00;33.75;;;6.70;99.90;;;;;;5093220;28;20043;-63
2022/12/11 06:57:09;;;;;;;49.72;33.83;;;7.00;99.90;;;;;;5091388;28;20043;-63
2022/12/11 06:59:34;;;;;;;48.72;33.90;;;6.60;99.90;;;;;;5093546;28;20044;-63
2022/12/11 07:02:00;;;;;;;46.15;32.13;;;6.30;99.90;;;;;;5090814;28;20028;-64
2022/12/11 07:04:26;;;;;;;41.00;28.65;;;7.20;99.90;;;;;;5087080;28;20519;-63
2022/12/11 07:06:52;;;;;;;42.40;29.20;;;6.40;99.90;;;;;;5089079;28;20059;-63
2022/12/11 07:09:18;;;;;;;40.45;29.33;;;6.80;99.90;;;;;;5093033;28;20032;-63
2022/12/11 07:11:43;;;;;;;40.50;30.25;;;7.10;99.90;;;;;;5093320;28;20040;-63
2022/12/11 07:14:09;;;;;;;30.25;22.75;;;7.30;99.90;;;;;;5080606;28;20037;-64
2022/12/11 07:16:34;;;;;;;25.90;19.38;;;6.60;99.90;;;;;;5082888;28;20078;-63
2022/12/11 07:19:00;;;;;;;31.45;21.73;;;7.30;99.90;;;;;;5081984;28;20052;-63
2022/12/11 07:21:25;;;;;;;36.45;25.73;;;6.70;99.90;;;;;;5083807;28;20048;-63
2022/12/11 07:23:51;;;;;;;37.95;27.67;;;6.90;99.90;;;;;;5086228;28;20074;-63
2022/12/11 07:26:19;;;;;;;42.03;30.15;;;6.80;99.90;;;;;;5094692;28;20044;-63
2022/12/11 07:28:45;;;;;;;50.60;31.20;;;7.20;99.90;;;;;;5092838;28;20040;-63
2022/12/11 07:31:19;;;;;;;60.35;31.20;;;6.70;99.90;;;;;;5089322;28;20031;-63
2022/12/11 07:33:45;;;;;;;78.93;36.17;;;6.50;99.90;;;;;;5084486;28;20028;-63
2022/12/11 07:36:12;;;;;;;88.53;38.47;;;6.40;99.90;;;;;;5089800;28;20378;-63
2022/12/11 07:38:38;;;;;;;97.50;40.63;;;6.50;99.90;;;;;;5077754;28;20044;-63
2022/12/11 07:41:06;;;;;;;92.88;39.22;;;6.20;99.90;;;;;;5086693;28;20044;-63
2022/12/11 07:43:34;;;;;;;92.50;42.13;;;6.30;99.90;;;;;;5084253;28;20039;-63
2022/12/11 07:46:04;;;;;;;93.82;39.28;;;6.20;99.90;;;;;;5081755;28;20497;-63
2022/12/11 07:48:30;;;;;;;94.28;39.95;;;7.00;99.90;;;;;;5078848;28;20136;-63
2022/12/11 07:51:05;;;;;;;106.50;43.53;;;7.40;99.90;;;;;;5084902;28;20490;-63
2022/12/11 07:53:31;;;;;;;103.82;43.70;;;6.10;99.90;;;;;;5086041;28;20036;-63
2022/12/11 07:55:58;;;;;;;99.88;41.10;;;6.60;99.90;;;;;;5083591;28;20036;-64
2022/12/11 07:58:23;;;;;;;110.97;42.45;;;6.40;99.90;;;;;;5080528;28;20044;-64
2022/12/11 08:00:49;;;;;;;115.97;45.22;;;6.00;99.90;;;;;;5073426;28;20093;-64
2022/12/11 08:03:14;;;;;;;102.53;42.67;;;7.30;99.90;;;;;;5081985;28;20067;-64
2022/12/11 08:05:48;;;;;;;100.80;40.45;;;5.90;99.90;;;;;;5085645;28;20047;-64
2022/12/11 08:08:14;;;;;;;111.72;42.97;;;6.10;99.90;;;;;;5086935;28;20044;-64
2022/12/11 08:10:41;;;;;;;120.95;46.20;;;6.20;99.90;;;;;;5086756;28;20397;-63
2022/12/11 08:13:06;;;;;;;138.20;49.72;;;7.40;99.90;;;;;;5081203;28;20169;-64
2022/12/11 08:15:32;;;;;;;128.45;48.35;;;7.40;99.90;;;;;;5084138;28;20055;-63
2022/12/11 08:17:58;;;;;;;130.15;47.50;;;6.70;99.90;;;;;;5082499;28;20063;-63
2022/12/11 08:20:24;;;;;;;120.78;45.40;;;7.60;99.90;;;;;;5075825;28;20051;-63
2022/12/11 08:22:49;;;;;;;113.63;46.80;;;7.20;99.90;;;;;;5083508;28;20038;-63
2022/12/11 08:25:15;;;;;;;118.20;46.28;;;7.60;99.90;;;;;;5091309;28;20489;-63
2022/12/11 08:27:41;;;;;;;109.40;42.67;;;6.20;99.90;;;;;;5082769;28;20056;-63
2022/12/11 08:30:07;;;;;;;121.25;46.70;;;6.30;99.90;;;;;;5086035;28;20033;-63
2022/12/11 08:32:34;;;;;;;110.78;44.97;;;7.20;99.90;;;;;;5080080;28;20081;-64
2022/12/11 08:35:00;;;;;;;135.30;49.17;;;6.40;99.90;;;;;;5082024;28;20040;-64
2022/12/11 08:37:25;;;;;;;119.68;46.72;;;7.60;99.90;;;;;;5077408;28;20032;-64
2022/12/11 08:39:51;;;;;;;267.45;48.95;;;6.20;99.90;;;;;;5073495;28;20067;-63
2022/12/11 08:42:16;;;;;;;127.85;50.53;;;7.80;99.90;;;;;;5080304;28;20040;-64
2022/12/11 08:44:42;;;;;;;118.60;46.80;;;6.30;99.90;;;;;;5088911;28;20051;-63
2022/12/11 08:47:08;;;;;;;116.65;47.33;;;7.70;99.90;;;;;;5075667;28;20509;-64
2022/12/11 08:49:35;;;;;;;115.18;47.40;;;7.80;99.90;;;;;;5089473;28;20051;-63
2022/12/11 08:52:03;;;;;;;111.30;45.92;;;6.30;99.90;;;;;;5076731;28;20037;-64
2022/12/11 08:54:28;;;;;;;112.93;45.78;;;7.80;99.90;;;;;;5084675;28;20032;-63
2022/12/11 08:56:54;;;;;;;106.53;44.65;;;7.80;99.90;;;;;;5081157;28;20036;-63
2022/12/11 08:59:19;;;;;;;100.43;44.10;;;7.80;99.90;;;;;;5086931;28;20383;-63
2022/12/11 09:01:45;;;;;;;100.32;45.47;;;6.40;99.90;;;;;;5075096;28;20390;-63
2022/12/11 09:04:10;;;;;;;105.57;43.90;;;6.40;99.90;;;;;;5086677;28;20090;-63
2022/12/11 09:06:36;;;;;;;111.82;46.78;;;7.70;99.90;;;;;;5084251;28;20131;-63
2022/12/11 09:09:02;;;;;;;108.72;45.00;;;7.90;99.90;;;;;;5079020;28;20483;-63
2022/12/11 09:11:31;;;;;;;103.70;45.22;;;7.90;99.90;;;;;;5083970;28;20060;-63
2022/12/11 09:13:57;;;;;;;106.18;45.70;;;6.90;99.90;;;;;;5074005;28;20378;-63
2022/12/11 09:16:25;;;;;;;112.03;47.45;;;6.80;99.90;;;;;;5079655;28;20090;-64
2022/12/11 09:18:52;;;;;;;107.10;46.90;;;7.10;99.90;;;;;;5084254;28;20036;-64
2022/12/11 09:21:21;;;;;;;105.88;46.60;;;6.70;99.90;;;;;;5090770;28;20047;-63
2022/12/11 09:23:47;;;;;;;114.60;47.10;;;8.20;99.90;;;;;;5082332;28;20043;-64
2022/12/11 09:26:15;;;;;;;109.85;46.08;;;6.70;99.90;;;;;;5079588;28;20041;-64
2022/12/11 09:28:42;;;;;;;91.60;43.20;;;8.00;99.90;;;;;;5077436;28;20036;-63
2022/12/11 09:31:10;;;;;;;94.55;43.45;;;7.20;99.90;;;;;;5080339;28;20028;-63
2022/12/11 09:33:37;;;;;;;97.50;43.03;;;8.00;99.90;;;;;;5085406;28;20405;-64
2022/12/11 09:36:03;;;;;;;95.38;45.75;;;7.30;99.90;;;;;;5082753;28;20036;-63
2022/12/11 09:38:30;;;;;;;91.50;43.25;;;6.80;99.90;;;;;;5084381;28;20116;-63
2022/12/11 09:40:56;;;;;;;81.43;40.22;;;7.20;99.90;;;;;;5078998;28;20051;-63
2022/12/11 09:43:37;;;;;;;91.43;40.90;;;8.10;99.90;;;;;;5086273;28;20405;-63
2022/12/11 09:46:08;;;;;;;78.03;34.92;;;7.70;99.90;;;;;;5081918;28;20497;-64
2022/12/11 09:48:35;;;;;;;87.00;39.92;;;7.40;99.90;;;;;;5085351;28;20032;-64
2022/12/11 09:51:13;;;;;;;78.28;40.00;;;8.20;99.90;;;;;;5085610;28;20036;-64
2022/12/11 09:53:38;;;;;;;83.72;40.28;;;7.90;99.90;;;;;;5081659;28;20080;-65
2022/12/11 09:56:20;;;;;;;88.43;42.47;;;7.40;99.90;;;;;;5082111;28;20052;-65
2022/12/11 09:58:49;;;;;;;83.57;41.55;;;8.10;99.90;;;;;;5079543;28;20445;-62
2022/12/11 10:01:22;;;;;;;77.68;40.67;;;7.00;99.90;;;;;;5078797;28;20509;-63
2022/12/11 10:04:00;;;;;;;242.48;47.20;;;8.00;99.90;;;;;;5087873;28;20040;-63
2022/12/11 10:07:07;;;;;;;72.32;38.90;;;8.20;99.90;;;;;;5087286;28;20040;-63
2022/12/11 10:09:54;;;;;;;72.88;37.80;;;8.20;99.90;;;;;;5064042;28;20157;-63
2022/12/11 10:12:25;;;;;;;72.38;37.75;;;7.90;99.90;;;;;;5087098;28;20032;-67
2022/12/11 10:15:12;;;;;;;62.58;35.15;;;8.20;99.90;;;;;;5079606;28;20130;-66
2022/12/11 10:17:40;;;;;;;63.38;33.53;;;8.30;99.90;;;;;;5084714;28;20040;-65
2022/12/11 10:20:22;;;;;;;65.00;34.65;;;7.60;99.90;;;;;;5079684;28;20090;-66
2022/12/11 10:22:49;;;;;;;63.50;36.33;;;8.30;99.90;;;;;;5085158;28;20043;-66
2022/12/11 10:25:33;;;;;;;59.67;34.63;;;7.50;99.90;;;;;;5074473;28;20036;-67
2022/12/11 10:28:07;;;;;;;68.93;39.15;;;8.00;99.90;;;;;;5082662;28;20048;-66
2022/12/11 10:30:36;;;;;;;64.22;38.17;;;8.30;99.90;;;;;;5092553;28;20032;-66
2022/12/11 10:33:21;;;;;;;67.07;39.00;;;8.40;99.90;;;;;;5086803;28;20071;-67
2022/12/11 10:35:56;;;;;;;68.25;40.38;;;8.40;99.90;;;;;;5086363;28;20040;-67
2022/12/11 10:38:31;;;;;;;65.47;40.58;;;7.30;99.90;;;;;;5079790;28;20036;-66
2022/12/11 10:41:02;;;;;;;68.75;41.95;;;7.60;99.90;;;;;;5087219;28;20036;-66
2022/12/11 10:43:37;;;;;;;60.22;36.75;;;7.60;99.90;;;;;;5088530;28;20040;-66
2022/12/11 10:46:05;;;;;;;62.72;38.13;;;7.30;99.90;;;;;;5086286;28;20067;-66
2022/12/11 10:48:31;;;;;;;59.80;39.17;;;7.30;99.90;;;;;;5083422;28;20051;-66
2022/12/11 10:51:06;;;;;;;59.22;38.63;;;8.10;99.90;;;;;;5090977;28;20032;-66
2022/12/11 10:53:33;;;;;;;55.92;35.55;;;8.00;99.90;;;;;;5089905;28;20063;-66
2022/12/11 10:55:59;;;;;;;61.58;38.95;;;8.50;99.90;;;;;;5086114;28;20035;-66
2022/12/11 10:58:32;;;;;;;62.45;39.38;;;7.60;99.90;;;;;;5086197;28;20040;-66
2022/12/11 11:01:17;;;;;;;57.30;37.38;;;8.50;99.90;;;;;;5083235;28;20067;-66
2022/12/11 11:03:53;;;;;;;43.92;29.15;;;8.40;99.90;;;;;;5082961;28;20036;-66
2022/12/11 11:06:21;;;;;;;43.92;30.65;;;7.70;99.90;;;;;;5089600;28;20051;-66
2022/12/11 11:08:55;;;;;;;46.60;33.25;;;8.40;99.90;;;;;;5074728;28;20037;-66
2022/12/11 11:11:33;;;;;;;39.58;27.08;;;7.70;99.90;;;;;;5079366;28;20047;-66
2022/12/11 11:14:19;;;;;;;36.10;26.77;;;7.80;99.90;;;;;;5083371;28;20056;-66
2022/12/11 11:16:50;;;;;;;44.72;30.00;;;7.80;99.90;;;;;;5084689;28;20064;-67
2022/12/11 11:19:39;;;;;;;40.50;29.02;;;7.90;99.90;;;;;;5074854;28;20466;-67
2022/12/11 11:22:11;;;;;;;45.55;29.33;;;8.30;99.90;;;;;;5074119;28;20494;-67
2022/12/11 11:24:41;;;;;;;36.15;26.35;;;8.60;99.90;;;;;;5084713;28;20043;-67
2022/12/11 11:27:52;;;;;;;35.17;25.15;;;8.00;99.90;;;;;;5080265;28;20357;-67
2022/12/11 11:30:22;;;;;;;37.15;25.42;;;8.40;99.90;;;;;;5070464;28;20093;-66
2022/12/11 11:32:54;;;;;;;32.58;23.77;;;8.10;99.90;;;;;;5090232;28;20043;-66
2022/12/11 11:35:27;;;;;;;35.35;24.83;;;7.90;99.90;;;;;;5073938;28;20067;-67
2022/12/11 11:38:08;;;;;;;39.38;27.50;;;8.40;99.90;;;;;;5086496;28;20123;-67
2022/12/11 11:40:52;;;;;;;37.47;25.80;;;7.90;99.90;;;;;;5086558;28;20410;-67
2022/12/11 11:43:30;;;;;;;36.22;25.13;;;8.40;99.90;;;;;;5084901;28;20490;-67
2022/12/11 11:46:11;;;;;;;35.90;22.80;;;8.00;99.90;;;;;;5080055;28;20052;-66
2022/12/11 11:48:48;;;;;;;30.95;22.25;;;8.30;99.90;;;;;;5081953;28;20052;-67
2022/12/11 11:51:31;;;;;;;32.53;22.02;;;8.10;99.90;;;;;;5074285;28;20028;-67
2022/12/11 11:54:00;;;;;;;35.60;23.52;;;7.90;99.90;;;;;;5072618;28;20040;-66
2022/12/11 11:56:33;;;;;;;33.97;23.17;;;7.80;99.90;;;;;;5082897;28;20063;-67
2022/12/11 11:59:21;;;;;;;31.08;22.50;;;8.20;99.90;;;;;;5072366;28;20415;-67
2022/12/11 12:01:47;;;;;;;33.95;22.80;;;8.20;99.90;;;;;;5080070;28;20502;-66
2022/12/11 12:04:13;;;;;;;32.60;23.85;;;8.00;99.90;;;;;;5089461;28;20127;-67
2022/12/11 12:06:48;;;;;;;32.85;21.10;;;8.10;99.90;;;;;;5092545;28;20036;-67
2022/12/11 12:09:29;;;;;;;30.33;21.25;;;8.00;99.90;;;;;;5072061;28;20040;-66
2022/12/11 12:12:16;;;;;;;32.28;22.25;;;8.00;99.90;;;;;;5078846;28;20669;-66
2022/12/11 12:15:08;;;;;;;35.45;24.23;;;8.00;99.90;;;;;;5085433;28;20048;-66
2022/12/11 12:17:49;;;;;;;31.33;21.90;;;7.60;99.90;;;;;;5079873;28;20502;-67
2022/12/11 12:20:42;;;;;;;37.92;24.92;;;7.60;99.90;;;;;;5079814;28;20614;-67
2022/12/11 12:23:35;;;;;;;38.53;26.33;;;8.00;99.90;;;;;;5081091;28;20056;-66
2022/12/11 12:26:13;;;;;;;40.33;28.23;;;7.60;99.90;;;;;;5080330;28;20416;-66
2022/12/11 12:28:57;;;;;;;38.92;26.40;;;8.00;99.90;;;;;;5079275;28;20064;-67
2022/12/11 12:31:54;;;;;;;36.10;25.65;;;8.20;99.90;;;;;;5077881;28;20087;-66
2022/12/11 12:34:38;;;;;;;;;;;8.40;49.90;;;;;;5087771;28;20106;-66
2022/12/11 12:37:24;;;;;;;43.58;30.55;;;7.80;1.00;;;;;;5088404;28;20353;-67
2022/12/11 12:40:13;;;;;;;43.17;30.27;;;8.30;99.90;;;;;;5078724;28;20047;-67
2022/12/11 12:42:55;;;;;;;49.70;32.90;;;8.20;99.90;;;;;;5087406;28;20127;-66
2022/12/11 12:45:33;;;;;;;45.03;28.92;;;8.00;95.80;;;;;;5084923;28;20390;-66
2022/12/11 12:48:00;;;;;;;45.90;31.33;;;8.10;14.00;;;;;;5081600;28;20055;-66
2022/12/11 12:50:35;;;;;;;45.50;30.08;;;8.50;1.00;;;;;;5085718;28;20081;-66
2022/12/11 12:53:01;;;;;;;47.30;30.33;;;8.60;1.00;;;;;;5083201;28;20050;-66
2022/12/11 12:55:30;;;;;;;46.70;29.65;;;8.20;99.90;;;;;;5085754;28;20040;-67
2022/12/11 12:58:02;;;;;;;45.13;31.55;;;8.20;99.90;;;;;;5084467;28;20393;-67